Time;durP1;ratioP1;P1;durP2;ratioP2;P2;SDS_P1;SDS_P2;PMS_P1;PMS_P2;Temp;Humidity;BMP_temperature;BMP_pressure;BME280_temperature;BME280_humidity;BME280_pressure;Samples;Min_cycle;Max_cycle;Signal;HPM_P1;HPM_P2
2021/07/15 00:01:27;;;;;;;10.52;4.05;;;;;;;;;;5071379;28;20021;-70
2021/07/15 00:03:53;;;;;;;11.48;4.10;;;;;;;;;;5071229;28;20068;-69
2021/07/15 00:06:19;;;;;;;10.90;4.03;;;;;;;;;;5071132;28;20025;-69
2021/07/15 00:08:45;;;;;;;11.13;4.03;;;;;;;;;;5071229;28;20021;-70
2021/07/15 00:11:13;;;;;;;7.22;3.30;;;;;;;;;;5071268;28;20074;-69
2021/07/15 00:13:39;;;;;;;8.98;3.92;;;;;;;;;;5071007;28;20051;-70
2021/07/15 00:16:07;;;;;;;9.60;3.63;;;;;;;;;;5072726;28;20027;-69
2021/07/15 00:18:35;;;;;;;7.47;3.40;;;;;;;;;;5075271;28;20024;-69
2021/07/15 00:21:05;;;;;;;7.95;3.70;;;;;;;;;;5075305;28;20021;-70
2021/07/15 00:23:31;;;;;;;8.73;3.47;;;;;;;;;;5075252;28;20079;-70
2021/07/15 00:25:58;;;;;;;9.48;3.50;;;;;;;;;;5073858;28;20020;-70
2021/07/15 00:28:24;;;;;;;8.07;3.70;;;;;;;;;;5074962;28;20089;-70
2021/07/15 00:30:50;;;;;;;10.25;3.38;;;;;;;;;;5075058;28;20017;-70
2021/07/15 00:33:16;;;;;;;9.00;3.40;;;;;;;;;;5075079;28;20048;-70
2021/07/15 00:35:42;;;;;;;8.20;3.30;;;;;;;;;;5074951;28;20052;-69
2021/07/15 00:38:09;;;;;;;10.38;4.10;;;;;;;;;;5075021;28;20021;-69
2021/07/15 00:40:36;;;;;;;9.15;3.50;;;;;;;;;;5074881;28;20027;-68
2021/07/15 00:43:02;;;;;;;9.15;3.72;;;;;;;;;;5074635;28;20036;-70
2021/07/15 00:45:28;;;;;;;9.55;3.58;;;;;;;;;;5074620;28;20553;-70
2021/07/15 00:47:54;;;;;;;9.20;3.35;;;;;;;;;;5074743;28;20028;-69
2021/07/15 00:50:21;;;;;;;9.68;3.58;;;;;;;;;;5074765;28;20044;-69
2021/07/15 00:52:50;;;;;;;8.85;3.17;;;;;;;;;;5074785;28;20020;-69
2021/07/15 00:55:18;;;;;;;9.75;3.90;;;;;;;;;;5074649;28;20025;-69
2021/07/15 00:57:44;;;;;;;8.63;3.58;;;;;;;;;;5074447;28;20115;-70
2021/07/15 01:00:11;;;;;;;9.25;4.30;;;;;;;;;;5074391;28;20105;-70
2021/07/15 01:02:37;;;;;;;11.10;3.55;;;;;;;;;;5074319;28;20020;-69
2021/07/15 01:05:14;;;;;;;7.03;2.97;;;;;;;;;;5074245;28;20111;-69
2021/07/15 01:07:40;;;;;;;7.68;3.40;;;;;;;;;;5076514;28;20025;-68
2021/07/15 01:10:08;;;;;;;8.30;3.20;;;;;;;;;;5094659;28;20055;-70
2021/07/15 01:12:34;;;;;;;10.90;3.35;;;;;;;;;;5094578;28;20046;-70
2021/07/15 01:15:08;;;;;;;9.15;3.53;;;;;;;;;;5094239;28;20028;-70
2021/07/15 01:17:54;;;;;;;9.18;3.60;;;;;;;;;;5094431;28;20055;-69
2021/07/15 01:20:39;;;;;;;8.60;3.72;;;;;;;;;;5094348;28;20468;-70
2021/07/15 01:23:12;;;;;;;10.50;3.67;;;;;;;;;;5094296;28;20380;-70
2021/07/15 01:25:48;;;;;;;8.90;3.60;;;;;;;;;;5094345;28;20503;-69
2021/07/15 01:28:26;;;;;;;10.55;3.55;;;;;;;;;;5092722;28;20020;-70
2021/07/15 01:30:59;;;;;;;12.23;3.47;;;;;;;;;;5094307;28;20443;-68
2021/07/15 01:33:29;;;;;;;14.27;4.40;;;;;;;;;;5085340;28;20040;-69
2021/07/15 01:35:55;;;;;;;12.45;4.50;;;;;;;;;;5072854;28;20033;-69
2021/07/15 01:38:24;;;;;;;14.77;4.60;;;;;;;;;;5055427;28;20550;-69
2021/07/15 01:40:59;;;;;;;16.95;5.20;;;;;;;;;;5055779;28;20048;-70
2021/07/15 01:43:46;;;;;;;14.88;5.18;;;;;;;;;;5072825;28;20052;-69
2021/07/15 01:46:14;;;;;;;18.20;5.70;;;;;;;;;;5071667;28;20389;-69
2021/07/15 01:48:40;;;;;;;13.93;4.70;;;;;;;;;;5052613;28;20017;-69
2021/07/15 01:51:07;;;;;;;15.60;5.03;;;;;;;;;;5073725;28;20024;-70
2021/07/15 01:53:33;;;;;;;12.88;5.13;;;;;;;;;;5073860;28;20037;-72
2021/07/15 01:56:00;;;;;;;38.72;6.97;;;;;;;;;;5073983;28;20504;-69
2021/07/15 01:58:27;;;;;;;22.90;5.90;;;;;;;;;;5073847;28;20020;-68
2021/07/15 02:00:53;;;;;;;14.85;5.97;;;;;;;;;;5073686;28;20058;-68
2021/07/15 02:03:19;;;;;;;24.55;5.82;;;;;;;;;;5073612;28;20029;-68
2021/07/15 02:05:46;;;;;;;27.33;5.90;;;;;;;;;;5073528;28;20055;-70
2021/07/15 02:08:12;;;;;;;20.27;5.53;;;;;;;;;;5072666;28;20016;-68
2021/07/15 02:10:41;;;;;;;12.60;5.75;;;;;;;;;;5073166;28;20020;-68
2021/07/15 02:13:08;;;;;;;14.10;5.40;;;;;;;;;;5072976;28;20186;-68
2021/07/15 02:15:34;;;;;;;17.55;5.68;;;;;;;;;;5054820;28;20019;-68
2021/07/15 02:18:01;;;;;;;16.05;6.10;;;;;;;;;;5072818;28;20431;-68
2021/07/15 02:20:27;;;;;;;13.48;5.57;;;;;;;;;;5072584;28;20027;-68
2021/07/15 02:22:54;;;;;;;19.58;5.82;;;;;;;;;;5054887;28;20556;-69
2021/07/15 02:25:21;;;;;;;17.20;5.63;;;;;;;;;;5055531;28;20032;-70
2021/07/15 02:27:48;;;;;;;15.85;5.53;;;;;;;;;;5073095;28;20082;-70
2021/07/15 02:30:15;;;;;;;11.90;5.45;;;;;;;;;;5073283;28;20104;-70
2021/07/15 02:32:56;;;;;;;16.80;5.50;;;;;;;;;;5055344;28;20052;-70
2021/07/15 02:35:23;;;;;;;15.27;5.60;;;;;;;;;;5073176;28;20020;-69
2021/07/15 02:37:50;;;;;;;17.45;6.18;;;;;;;;;;5072657;28;20055;-70
2021/07/15 02:40:17;;;;;;;13.20;5.70;;;;;;;;;;5072349;28;20100;-70
2021/07/15 02:42:44;;;;;;;16.60;5.47;;;;;;;;;;5072543;28;20024;-70
2021/07/15 02:45:11;;;;;;;18.45;5.78;;;;;;;;;;5072481;28;20075;-70
2021/07/15 02:47:41;;;;;;;15.90;5.63;;;;;;;;;;5072869;28;20021;-69
2021/07/15 02:50:08;;;;;;;16.27;5.93;;;;;;;;;;5072681;28;20107;-70
2021/07/15 02:52:34;;;;;;;13.90;5.72;;;;;;;;;;5054533;28;20024;-71
2021/07/15 02:55:00;;;;;;;16.60;5.75;;;;;;;;;;5072455;28;20059;-72
2021/07/15 02:57:41;;;;;;;13.88;6.05;;;;;;;;;;5072583;28;20020;-72
2021/07/15 03:00:07;;;;;;;12.85;5.78;;;;;;;;;;5072368;28;20059;-72
2021/07/15 03:02:38;;;;;;;12.43;5.63;;;;;;;;;;5054593;28;20123;-72
2021/07/15 03:05:05;;;;;;;12.52;5.60;;;;;;;;;;5054294;28;20052;-72
2021/07/15 03:07:39;;;;;;;12.63;5.22;;;;;;;;;;5054635;28;20032;-71
2021/07/15 03:10:06;;;;;;;13.35;5.55;;;;;;;;;;5072404;28;20391;-71
2021/07/15 03:12:34;;;;;;;12.90;5.25;;;;;;;;;;5053893;28;20703;-72
2021/07/15 03:15:00;;;;;;;18.60;5.72;;;;;;;;;;5071682;28;20488;-70
2021/07/15 03:17:28;;;;;;;14.52;5.68;;;;;;;;;;5071785;28;20017;-71
2021/07/15 03:19:56;;;;;;;19.58;5.40;;;;;;;;;;5071858;28;20123;-69
2021/07/15 03:22:23;;;;;;;19.38;5.47;;;;;;;;;;5071997;28;20462;-70
2021/07/15 03:24:56;;;;;;;10.00;5.20;;;;;;;;;;5053712;28;20039;-71
2021/07/15 03:27:22;;;;;;;;;;;;;;;;;;5072331;28;20473;-70
2021/07/15 03:29:48;;;;;;;16.42;6.00;;;;;;;;;;5053990;28;20583;-70
2021/07/15 03:32:15;;;;;;;12.55;5.43;;;;;;;;;;5072075;28;20027;-70
2021/07/15 03:34:42;;;;;;;13.27;5.05;;;;;;;;;;5072061;28;20028;-70
2021/07/15 03:37:08;;;;;;;11.48;4.97;;;;;;;;;;5072062;28;20020;-69
2021/07/15 03:39:35;;;;;;;15.63;4.97;;;;;;;;;;5071762;28;20016;-70
2021/07/15 03:42:01;;;;;;;13.82;4.60;;;;;;;;;;5053484;28;20024;-70
2021/07/15 03:44:27;;;;;;;14.82;4.90;;;;;;;;;;5071366;28;20119;-71
2021/07/15 03:46:54;;;;;;;12.75;4.97;;;;;;;;;;5071730;28;20028;-70
2021/07/15 03:49:22;;;;;;;19.80;5.32;;;;;;;;;;5071949;28;20020;-70
2021/07/15 03:51:48;;;;;;;12.50;4.70;;;;;;;;;;5071175;28;20024;-73
2021/07/15 03:54:14;;;;;;;14.40;4.90;;;;;;;;;;5071633;28;20028;-70
2021/07/15 03:56:43;;;;;;;17.25;4.90;;;;;;;;;;5071964;28;20488;-70
2021/07/15 03:59:10;;;;;;;12.20;5.15;;;;;;;;;;5071727;28;20131;-70
2021/07/15 04:01:36;;;;;;;14.40;5.10;;;;;;;;;;5053539;28;20051;-70
2021/07/15 04:04:05;;;;;;;15.50;5.35;;;;;;;;;;5071768;28;20041;-70
2021/07/15 04:06:33;;;;;;;14.00;5.30;;;;;;;;;;5071733;28;20117;-69
2021/07/15 04:09:00;;;;;;;15.15;5.25;;;;;;;;;;5053582;28;20166;-70
2021/07/15 04:11:28;;;;;;;14.98;5.07;;;;;;;;;;5053741;28;20021;-70
2021/07/15 04:13:56;;;;;;;17.20;5.72;;;;;;;;;;5071351;28;20052;-70
2021/07/15 04:16:40;;;;;;;12.05;5.35;;;;;;;;;;5071249;28;20037;-70
2021/07/15 04:19:06;;;;;;;12.50;5.43;;;;;;;;;;5053671;28;20021;-70
2021/07/15 04:21:33;;;;;;;16.40;5.70;;;;;;;;;;5071617;28;20104;-70
2021/07/15 04:24:00;;;;;;;15.75;7.03;;;;;;;;;;5071527;28;20557;-70
2021/07/15 04:26:26;;;;;;;12.75;5.47;;;;;;;;;;5071653;28;20024;-69
2021/07/15 04:28:53;;;;;;;13.32;5.22;;;;;;;;;;5053267;28;20052;-71
2021/07/15 04:31:31;;;;;;;18.10;5.80;;;;;;;;;;5071420;28;20020;-70
2021/07/15 04:33:58;;;;;;;21.40;5.55;;;;;;;;;;5053240;28;20092;-70
2021/07/15 04:36:25;;;;;;;17.77;5.70;;;;;;;;;;5053070;28;20074;-70
2021/07/15 04:38:51;;;;;;;11.63;5.18;;;;;;;;;;5070730;28;20029;-70
2021/07/15 04:41:18;;;;;;;16.38;6.43;;;;;;;;;;5070705;28;20378;-70
2021/07/15 04:43:45;;;;;;;12.25;5.00;;;;;;;;;;5070788;28;20218;-70
2021/07/15 04:46:12;;;;;;;16.55;5.65;;;;;;;;;;5070808;28;20024;-69
2021/07/15 04:48:38;;;;;;;13.57;5.45;;;;;;;;;;5070778;28;20024;-70
2021/07/15 04:51:06;;;;;;;13.82;5.55;;;;;;;;;;5070889;28;20020;-69
2021/07/15 04:53:32;;;;;;;15.40;5.05;;;;;;;;;;5070729;28;20017;-69
2021/07/15 04:55:59;;;;;;;12.98;5.82;;;;;;;;;;5052720;28;20473;-70
2021/07/15 04:58:25;;;;;;;14.00;5.22;;;;;;;;;;5052595;28;20393;-70
2021/07/15 05:00:51;;;;;;;14.07;5.55;;;;;;;;;;5070544;28;20021;-70
2021/07/15 05:03:29;;;;;;;16.20;6.00;;;;;;;;;;5073830;28;20037;-70
2021/07/15 05:05:55;;;;;;;16.98;5.68;;;;;;;;;;5074201;28;20648;-69
2021/07/15 05:08:21;;;;;;;12.65;5.93;;;;;;;;;;5074173;28;20550;-70
2021/07/15 05:10:47;;;;;;;14.85;6.85;;;;;;;;;;5074457;28;20055;-70
2021/07/15 05:13:13;;;;;;;12.45;5.90;;;;;;;;;;5074078;28;20101;-69
2021/07/15 05:15:39;;;;;;;16.23;6.20;;;;;;;;;;5056089;28;20449;-70
2021/07/15 05:18:05;;;;;;;16.27;6.82;;;;;;;;;;5056525;28;20044;-70
2021/07/15 05:20:31;;;;;;;22.55;7.10;;;;;;;;;;5074353;28;20020;-70
2021/07/15 05:22:57;;;;;;;15.23;7.18;;;;;;;;;;5073737;28;20056;-70
2021/07/15 05:25:23;;;;;;;18.45;7.47;;;;;;;;;;5074214;28;20028;-70
2021/07/15 05:27:50;;;;;;;14.02;7.40;;;;;;;;;;5056406;28;20043;-69
2021/07/15 05:30:16;;;;;;;15.15;8.35;;;;;;;;;;5056276;28;20473;-70
2021/07/15 05:32:43;;;;;;;19.95;7.68;;;;;;;;;;5074433;28;20054;-70
2021/07/15 05:35:09;;;;;;;18.10;7.10;;;;;;;;;;5074262;28;20051;-71
2021/07/15 05:37:35;;;;;;;20.92;8.85;;;;;;;;;;5074165;28;20052;-71
2021/07/15 05:40:01;;;;;;;25.30;9.15;;;;;;;;;;5074060;28;20091;-70
2021/07/15 05:42:28;;;;;;;19.70;9.20;;;;;;;;;;5074202;28;20538;-71
2021/07/15 05:44:55;;;;;;;21.27;9.48;;;;;;;;;;5074228;28;20481;-70
2021/07/15 05:47:21;;;;;;;19.58;8.88;;;;;;;;;;5074077;28;20020;-70
2021/07/15 05:49:47;;;;;;;17.13;8.35;;;;;;;;;;5073977;28;20025;-70
2021/07/15 05:52:13;;;;;;;15.63;8.30;;;;;;;;;;5074085;28;20381;-70
2021/07/15 05:54:39;;;;;;;19.45;8.48;;;;;;;;;;5074311;28;20168;-71
2021/07/15 05:57:06;;;;;;;22.05;8.82;;;;;;;;;;5074063;28;20025;-70
2021/07/15 05:59:33;;;;;;;19.42;8.25;;;;;;;;;;5055910;28;20433;-70
2021/07/15 06:01:59;;;;;;;20.40;8.75;;;;;;;;;;5073385;28;20019;-70
2021/07/15 06:04:25;;;;;;;19.90;8.50;;;;;;;;;;5055627;28;20040;-70
2021/07/15 06:06:51;;;;;;;17.50;8.57;;;;;;;;;;5073818;28;20020;-71
2021/07/15 06:09:17;;;;;;;22.98;9.35;;;;;;;;;;5073626;28;20029;-71
2021/07/15 06:11:43;;;;;;;25.08;9.65;;;;;;;;;;5073456;28;20479;-70
2021/07/15 06:14:09;;;;;;;17.77;9.40;;;;;;;;;;5072865;28;20053;-70
2021/07/15 06:16:35;;;;;;;21.98;9.13;;;;;;;;;;5073440;28;20473;-70
2021/07/15 06:19:02;;;;;;;31.38;10.15;;;;;;;;;;5072905;28;20492;-70
2021/07/15 06:21:28;;;;;;;22.05;9.98;;;;;;;;;;5072895;28;20024;-70
2021/07/15 06:23:54;;;;;;;16.10;9.27;;;;;;;;;;5073469;28;20028;-70
2021/07/15 06:26:20;;;;;;;20.80;9.75;;;;;;;;;;5072626;28;20020;-70
2021/07/15 06:28:46;;;;;;;21.98;10.02;;;;;;;;;;5054659;28;20799;-70
2021/07/15 06:31:12;;;;;;;20.77;10.25;;;;;;;;;;5054737;28;20012;-70
2021/07/15 06:33:39;;;;;;;22.48;10.50;;;;;;;;;;5054657;28;20024;-70
2021/07/15 06:36:09;;;;;;;24.98;10.75;;;;;;;;;;5054997;28;20408;-70
2021/07/15 06:38:36;;;;;;;18.60;9.25;;;;;;;;;;5072352;28;20033;-70
2021/07/15 06:41:03;;;;;;;18.60;10.65;;;;;;;;;;5072413;28;20573;-70
2021/07/15 06:43:29;;;;;;;23.77;11.00;;;;;;;;;;5072450;28;20033;-70
2021/07/15 06:45:55;;;;;;;18.92;10.45;;;;;;;;;;5054534;28;20067;-71
2021/07/15 06:48:21;;;;;;;23.85;10.90;;;;;;;;;;5072240;28;20047;-72
2021/07/15 06:50:47;;;;;;;19.90;10.57;;;;;;;;;;5054590;28;20082;-71
2021/07/15 06:53:13;;;;;;;24.77;11.60;;;;;;;;;;5072546;28;20020;-70
2021/07/15 06:55:40;;;;;;;17.50;10.93;;;;;;;;;;5072264;28;20413;-71
2021/07/15 06:58:06;;;;;;;25.77;12.02;;;;;;;;;;5072064;28;20063;-70
2021/07/15 07:00:33;;;;;;;29.17;11.55;;;;;;;;;;5072518;28;20028;-71
2021/07/15 07:02:59;;;;;;;21.08;10.57;;;;;;;;;;5072355;28;20021;-72
2021/07/15 07:05:25;;;;;;;23.55;11.60;;;;;;;;;;5072657;28;20024;-72
2021/07/15 07:07:52;;;;;;;23.05;10.30;;;;;;;;;;5072381;28;20028;-71
2021/07/15 07:10:18;;;;;;;20.77;10.63;;;;;;;;;;5072527;28;20433;-72
2021/07/15 07:12:45;;;;;;;25.23;11.38;;;;;;;;;;5054180;28;20075;-70
2021/07/15 07:15:12;;;;;;;22.60;11.27;;;;;;;;;;5072123;28;20043;-71
2021/07/15 07:17:39;;;;;;;25.45;11.05;;;;;;;;;;5071760;28;20025;-70
2021/07/15 07:20:06;;;;;;;32.10;11.60;;;;;;;;;;5071792;28;20048;-71
2021/07/15 07:22:32;;;;;;;20.02;10.63;;;;;;;;;;5071846;28;20021;-72
2021/07/15 07:24:58;;;;;;;22.95;10.77;;;;;;;;;;5071841;28;20048;-72
2021/07/15 07:27:24;;;;;;;23.80;10.77;;;;;;;;;;5071981;28;20059;-71
2021/07/15 07:29:50;;;;;;;19.77;10.55;;;;;;;;;;5071697;28;20048;-71
2021/07/15 07:32:16;;;;;;;20.95;9.95;;;;;;;;;;5053976;28;20607;-69
2021/07/15 07:34:42;;;;;;;22.50;9.55;;;;;;;;;;5053987;28;20524;-71
2021/07/15 07:37:08;;;;;;;19.10;9.45;;;;;;;;;;5071765;28;20020;-71
2021/07/15 07:39:34;;;;;;;16.45;9.38;;;;;;;;;;5053488;28;20021;-70
2021/07/15 07:42:00;;;;;;;21.02;9.95;;;;;;;;;;5071715;28;20035;-70
2021/07/15 07:44:27;;;;;;;28.98;11.32;;;;;;;;;;5070889;28;20059;-71
2021/07/15 07:46:53;;;;;;;27.63;10.77;;;;;;;;;;5051633;28;20023;-71
2021/07/15 07:49:19;;;;;;;22.95;10.10;;;;;;;;;;5056036;28;20075;-69
2021/07/15 07:51:45;;;;;;;20.85;10.02;;;;;;;;;;5047438;28;20033;-72
2021/07/15 07:54:11;;;;;;;27.73;11.45;;;;;;;;;;5059779;28;20538;-70
2021/07/15 07:56:37;;;;;;;26.80;10.98;;;;;;;;;;5046218;28;20079;-71
2021/07/15 07:59:03;;;;;;;20.52;10.10;;;;;;;;;;5062069;28;20091;-71
2021/07/15 08:01:29;;;;;;;19.63;10.45;;;;;;;;;;5062844;28;20501;-69
2021/07/15 08:03:56;;;;;;;19.20;10.27;;;;;;;;;;5062587;28;20037;-71
2021/07/15 08:06:22;;;;;;;19.25;10.02;;;;;;;;;;5061851;28;20033;-71
2021/07/15 08:08:50;;;;;;;21.67;10.15;;;;;;;;;;5047331;28;20025;-70
2021/07/15 08:11:16;;;;;;;22.08;10.10;;;;;;;;;;5061388;28;20493;-71
2021/07/15 08:13:42;;;;;;;19.73;9.82;;;;;;;;;;5062200;28;20064;-71
2021/07/15 08:16:09;;;;;;;27.88;10.65;;;;;;;;;;5059602;28;20047;-71
2021/07/15 08:18:35;;;;;;;32.35;11.70;;;;;;;;;;5064213;28;20024;-70
2021/07/15 08:21:01;;;;;;;23.98;11.38;;;;;;;;;;5070504;28;20023;-71
2021/07/15 08:23:27;;;;;;;21.52;11.85;;;;;;;;;;5070245;28;20078;-69
2021/07/15 08:25:53;;;;;;;20.67;11.20;;;;;;;;;;5052595;28;20112;-70
2021/07/15 08:28:19;;;;;;;24.40;12.02;;;;;;;;;;5070351;28;20021;-69
2021/07/15 08:30:45;;;;;;;20.35;11.05;;;;;;;;;;5070499;28;20044;-70
2021/07/15 08:33:11;;;;;;;22.13;12.10;;;;;;;;;;5070421;28;20021;-70
2021/07/15 08:35:38;;;;;;;22.77;11.60;;;;;;;;;;5070194;28;20028;-70
2021/07/15 08:38:04;;;;;;;21.92;11.38;;;;;;;;;;5055938;28;20055;-70
2021/07/15 08:40:30;;;;;;;18.13;10.15;;;;;;;;;;5073815;28;20024;-70
2021/07/15 08:42:56;;;;;;;17.33;9.25;;;;;;;;;;5056649;28;20028;-70
2021/07/15 08:45:22;;;;;;;22.50;9.77;;;;;;;;;;5074404;28;20031;-69
2021/07/15 08:47:49;;;;;;;22.33;10.23;;;;;;;;;;5074811;28;20028;-69
2021/07/15 08:50:16;;;;;;;17.23;9.48;;;;;;;;;;5056750;28;20089;-69
2021/07/15 08:52:42;;;;;;;19.42;7.90;;;;;;;;;;5072479;28;20024;-69
2021/07/15 08:57:41;;;;;;;18.33;7.88;;;;;;;;;;5074631;28;20032;-69
2021/07/15 09:00:09;;;;;;;20.67;7.47;;;;;;;;;;5056224;28;20046;-70
2021/07/15 09:02:35;;;;;;;16.15;6.82;;;;;;;;;;5074219;28;20115;-70
2021/07/15 09:05:01;;;;;;;21.83;6.90;;;;;;;;;;5074240;28;20485;-70
2021/07/15 09:07:27;;;;;;;11.50;5.60;;;;;;;;;;5074010;28;20025;-70
2021/07/15 09:09:55;;;;;;;13.57;5.22;;;;;;;;;;5073890;28;20028;-69
2021/07/15 09:12:21;;;;;;;12.40;5.00;;;;;;;;;;5055898;28;20021;-70
2021/07/15 09:14:52;;;;;;;14.18;5.22;;;;;;;;;;5073873;28;20028;-69
2021/07/15 09:17:47;;;;;;;15.73;4.75;;;;;;;;;;5054733;28;20025;-70
2021/07/15 09:20:18;;;;;;;17.35;4.60;;;;;;;;;;5049333;28;20037;-70
2021/07/15 09:22:53;;;;;;;12.85;4.55;;;;;;;;;;5053093;28;20351;-69
2021/07/15 09:25:19;;;;;;;12.23;4.57;;;;;;;;;;5052857;28;20037;-70
2021/07/15 09:27:51;;;;;;;10.85;4.47;;;;;;;;;;5053798;28;20109;-70
2021/07/15 09:30:17;;;;;;;;;;;;;;;;;;5053146;28;20079;-70
2021/07/15 09:32:49;;;;;;;9.50;3.70;;;;;;;;;;5054035;28;19908;-69
2021/07/15 09:35:24;;;;;;;8.20;3.53;;;;;;;;;;5052462;28;20024;-71
2021/07/15 09:37:50;;;;;;;13.15;3.38;;;;;;;;;;5053715;28;20024;-69
2021/07/15 09:40:16;;;;;;;11.40;3.20;;;;;;;;;;5053580;28;20025;-70
2021/07/15 09:42:42;;;;;;;11.43;3.30;;;;;;;;;;5053605;28;20068;-69
2021/07/15 09:45:11;;;;;;;12.32;3.53;;;;;;;;;;5051800;28;20445;-69
2021/07/15 09:47:44;;;;;;;10.40;3.63;;;;;;;;;;5051520;28;20029;-69
2021/07/15 09:50:16;;;;;;;7.57;3.42;;;;;;;;;;5053113;28;20071;-69
2021/07/15 09:52:42;;;;;;;7.82;3.70;;;;;;;;;;5053667;28;20025;-69
2021/07/15 09:55:25;;;;;;;10.00;3.15;;;;;;;;;;5052153;28;20029;-69
2021/07/15 09:57:51;;;;;;;;;;;;;;;;;;5053782;28;20575;-69
2021/07/15 10:00:17;;;;;;;8.52;2.92;;;;;;;;;;5053491;28;20011;-70
2021/07/15 10:02:43;;;;;;;9.10;2.85;;;;;;;;;;5053593;28;20017;-69
2021/07/15 10:05:11;;;;;;;9.82;3.25;;;;;;;;;;5051846;28;20489;-70
2021/07/15 10:07:37;;;;;;;9.05;2.97;;;;;;;;;;5053140;28;20024;-69
2021/07/15 10:10:20;;;;;;;8.02;2.97;;;;;;;;;;5051803;28;20664;-69
2021/07/15 10:12:47;;;;;;;9.27;2.50;;;;;;;;;;5052846;28;20048;-70
2021/07/15 10:15:14;;;;;;;8.57;2.72;;;;;;;;;;5067715;28;20032;-69
2021/07/15 10:17:41;;;;;;;9.40;2.17;;;;;;;;;;5052899;28;20420;-68
2021/07/15 10:20:14;;;;;;;13.07;2.55;;;;;;;;;;5052561;28;20023;-69
2021/07/15 10:22:40;;;;;;;9.57;2.35;;;;;;;;;;5066479;28;20032;-69
2021/07/15 10:25:09;;;;;;;5.93;2.30;;;;;;;;;;5071509;28;20099;-69
2021/07/15 10:27:36;;;;;;;11.18;2.60;;;;;;;;;;5072450;28;20028;-69
2021/07/15 10:30:03;;;;;;;6.40;2.25;;;;;;;;;;5071866;28;20100;-69
2021/07/15 10:32:30;;;;;;;9.95;2.42;;;;;;;;;;5072173;28;20552;-69
2021/07/15 10:34:56;;;;;;;9.07;2.80;;;;;;;;;;5069271;28;20095;-70
2021/07/15 10:37:24;;;;;;;7.20;2.10;;;;;;;;;;5071856;28;20374;-69
2021/07/15 10:39:50;;;;;;;9.93;2.67;;;;;;;;;;5072179;28;20059;-68
2021/07/15 10:42:16;;;;;;;12.80;2.33;;;;;;;;;;5072405;28;20031;-69
2021/07/15 10:44:43;;;;;;;7.50;2.00;;;;;;;;;;5072269;28;20481;-68
2021/07/15 10:47:12;;;;;;;6.38;1.95;;;;;;;;;;5072053;28;20025;-68
2021/07/15 10:49:38;;;;;;;5.07;1.70;;;;;;;;;;5071374;28;20051;-68
2021/07/15 10:52:06;;;;;;;8.10;2.40;;;;;;;;;;5071759;28;20070;-69
2021/07/15 10:54:32;;;;;;;6.32;1.80;;;;;;;;;;5072316;28;20025;-69
2021/07/15 10:56:58;;;;;;;8.98;1.90;;;;;;;;;;5072341;28;20028;-70
2021/07/15 10:59:28;;;;;;;7.35;1.58;;;;;;;;;;5071844;28;20024;-70
2021/07/15 11:02:01;;;;;;;6.25;1.55;;;;;;;;;;5072129;28;20017;-69
2021/07/15 11:04:33;;;;;;;5.03;1.67;;;;;;;;;;5053425;28;20094;-69
2021/07/15 11:07:02;;;;;;;7.80;1.60;;;;;;;;;;5071389;28;20021;-70
2021/07/15 11:09:33;;;;;;;6.13;1.60;;;;;;;;;;5071420;28;20021;-69
2021/07/15 11:12:00;;;;;;;6.60;1.98;;;;;;;;;;5071884;28;20496;-69
2021/07/15 11:14:41;;;;;;;6.75;1.35;;;;;;;;;;5071724;28;20040;-69
2021/07/15 11:17:28;;;;;;;3.55;1.30;;;;;;;;;;5054261;28;20068;-69
2021/07/15 11:19:57;;;;;;;5.28;1.33;;;;;;;;;;5068988;28;20366;-69
2021/07/15 11:22:33;;;;;;;5.78;1.50;;;;;;;;;;5071603;28;20063;-70
2021/07/15 11:25:05;;;;;;;5.22;1.20;;;;;;;;;;5071529;28;20705;-69
2021/07/15 11:27:32;;;;;;;3.95;1.20;;;;;;;;;;5053582;28;20036;-69
2021/07/15 11:29:59;;;;;;;3.00;0.93;;;;;;;;;;5071424;28;20489;-69
2021/07/15 11:32:26;;;;;;;15.68;1.50;;;;;;;;;;5071209;28;20082;-69
2021/07/15 11:34:54;;;;;;;5.05;1.30;;;;;;;;;;5053329;28;20056;-70
2021/07/15 11:37:26;;;;;;;4.97;1.30;;;;;;;;;;5053344;28;20062;-69
2021/07/15 11:39:52;;;;;;;5.70;1.20;;;;;;;;;;5070302;28;20025;-70
2021/07/15 11:42:19;;;;;;;3.92;1.50;;;;;;;;;;5053242;28;20515;-69
2021/07/15 11:44:57;;;;;;;4.38;1.50;;;;;;;;;;5071348;28;20153;-70
2021/07/15 11:47:42;;;;;;;6.45;1.25;;;;;;;;;;5071341;28;20469;-69
2021/07/15 11:50:29;;;;;;;5.50;1.48;;;;;;;;;;5071218;28;20025;-70
2021/07/15 11:53:13;;;;;;;6.68;1.45;;;;;;;;;;5057633;28;20041;-69
2021/07/15 11:55:39;;;;;;;4.25;1.30;;;;;;;;;;5070997;28;20028;-69
2021/07/15 11:58:06;;;;;;;7.60;1.40;;;;;;;;;;5070987;28;20017;-70
2021/07/15 12:00:32;;;;;;;2.90;1.08;;;;;;;;;;5071053;28;20024;-69
2021/07/15 12:02:58;;;;;;;5.53;1.42;;;;;;;;;;5071317;28;20054;-69
2021/07/15 12:05:28;;;;;;;4.93;1.40;;;;;;;;;;5071173;28;20040;-69
2021/07/15 12:08:05;;;;;;;6.43;1.50;;;;;;;;;;5071144;28;20477;-69
2021/07/15 12:10:35;;;;;;;4.60;1.60;;;;;;;;;;5052927;28;20498;-69
2021/07/15 12:13:02;;;;;;;6.75;1.50;;;;;;;;;;5070471;28;20047;-69
2021/07/15 12:15:29;;;;;;;5.50;1.38;;;;;;;;;;5066418;28;20033;-70
2021/07/15 12:18:02;;;;;;;3.75;1.50;;;;;;;;;;5050368;28;20032;-69
2021/07/15 12:20:36;;;;;;;5.50;1.30;;;;;;;;;;5048980;28;20021;-69
2021/07/15 12:23:02;;;;;;;5.63;1.60;;;;;;;;;;5050745;28;20036;-69
2021/07/15 12:25:29;;;;;;;6.70;1.20;;;;;;;;;;5050727;28;20075;-70
2021/07/15 12:27:56;;;;;;;8.32;1.67;;;;;;;;;;5050702;28;20044;-69
2021/07/15 12:30:23;;;;;;;7.47;1.42;;;;;;;;;;5050814;28;20025;-70
2021/07/15 12:32:54;;;;;;;4.47;1.15;;;;;;;;;;5050745;28;20428;-70
2021/07/15 12:35:20;;;;;;;4.82;1.40;;;;;;;;;;5050630;28;20051;-69
2021/07/15 12:37:46;;;;;;;8.10;1.27;;;;;;;;;;5050609;28;20652;-70
2021/07/15 12:40:12;;;;;;;5.82;1.65;;;;;;;;;;5050834;28;20055;-69
2021/07/15 12:42:38;;;;;;;9.32;1.20;;;;;;;;;;5050800;28;20461;-69
2021/07/15 12:45:19;;;;;;;6.25;1.40;;;;;;;;;;5050715;28;20551;-70
2021/07/15 12:47:58;;;;;;;2.80;1.38;;;;;;;;;;5049472;28;20047;-69
2021/07/15 12:50:24;;;;;;;4.65;1.40;;;;;;;;;;5050823;28;20109;-68
2021/07/15 12:52:50;;;;;;;6.53;1.35;;;;;;;;;;5050676;28;20100;-70
2021/07/15 12:55:27;;;;;;;7.47;1.27;;;;;;;;;;5050599;28;20021;-69
2021/07/15 12:57:56;;;;;;;4.10;1.33;;;;;;;;;;5050594;28;20103;-69
2021/07/15 13:00:22;;;;;;;5.53;1.52;;;;;;;;;;5050735;28;20048;-69
2021/07/15 13:02:49;;;;;;;4.68;1.55;;;;;;;;;;5050803;28;20061;-69
2021/07/15 13:05:19;;;;;;;6.07;1.70;;;;;;;;;;5050549;28;20029;-70
2021/07/15 13:07:46;;;;;;;7.13;1.50;;;;;;;;;;5050657;28;20120;-69
2021/07/15 13:10:35;;;;;;;4.55;1.30;;;;;;;;;;5050372;28;20425;-69
2021/07/15 13:15:50;;;;;;;4.63;1.15;;;;;;;;;;5050068;28;20040;-68
2021/07/15 13:18:16;;;;;;;2.30;1.10;;;;;;;;;;5050320;28;20075;-68
2021/07/15 13:20:43;;;;;;;3.88;1.25;;;;;;;;;;5050541;28;20025;-69
2021/07/15 13:23:10;;;;;;;9.35;1.90;;;;;;;;;;5050840;28;20017;-68
2021/07/15 13:25:42;;;;;;;6.95;1.30;;;;;;;;;;5052642;28;20029;-68
2021/07/15 13:28:08;;;;;;;;;;;;;;;;;;5054305;28;20424;-69
2021/07/15 13:30:35;;;;;;;4.80;1.40;;;;;;;;;;5054075;28;20170;-70
2021/07/15 13:33:10;;;;;;;4.80;1.40;;;;;;;;;;5053902;28;20063;-69
2021/07/15 13:35:37;;;;;;;3.65;1.50;;;;;;;;;;5053713;28;20029;-68
2021/07/15 13:38:04;;;;;;;5.75;1.40;;;;;;;;;;5052321;28;20028;-68
2021/07/15 13:40:33;;;;;;;7.25;1.20;;;;;;;;;;5053806;28;20029;-69
2021/07/15 13:43:07;;;;;;;2.83;1.10;;;;;;;;;;5052371;28;20074;-69
2021/07/15 13:45:33;;;;;;;7.88;1.35;;;;;;;;;;5053596;28;20534;-69
2021/07/15 13:48:09;;;;;;;11.88;1.40;;;;;;;;;;5052412;28;20078;-69
2021/07/15 13:50:35;;;;;;;6.50;1.35;;;;;;;;;;5053577;28;20063;-69
2021/07/15 13:53:01;;;;;;;3.42;1.33;;;;;;;;;;5052084;28;20028;-68
2021/07/15 13:55:29;;;;;;;6.25;1.73;;;;;;;;;;5053143;28;20473;-68
2021/07/15 13:57:56;;;;;;;5.90;1.35;;;;;;;;;;5051835;28;20485;-68
2021/07/15 14:00:25;;;;;;;4.18;1.38;;;;;;;;;;5051877;28;20017;-68
2021/07/15 14:02:54;;;;;;;8.70;1.75;;;;;;;;;;5053430;28;20029;-68
2021/07/15 14:05:32;;;;;;;5.60;1.42;;;;;;;;;;5051856;28;20033;-68
2021/07/15 14:07:59;;;;;;;5.28;1.42;;;;;;;;;;5053116;28;20078;-68
2021/07/15 14:10:26;;;;;;;5.28;1.20;;;;;;;;;;5051806;28;20094;-68
2021/07/15 14:12:52;;;;;;;6.00;1.15;;;;;;;;;;5053096;28;20040;-68
2021/07/15 14:15:20;;;;;;;8.82;1.45;;;;;;;;;;5052719;28;20024;-68
2021/07/15 14:18:01;;;;;;;11.48;1.38;;;;;;;;;;5053048;28;20036;-69
2021/07/15 14:20:27;;;;;;;6.47;1.30;;;;;;;;;;5072523;28;20020;-69
2021/07/15 14:22:53;;;;;;;5.57;1.33;;;;;;;;;;5070878;28;20445;-69
2021/07/15 14:25:20;;;;;;;6.10;1.25;;;;;;;;;;5053337;28;20035;-69
2021/07/15 14:27:46;;;;;;;9.52;1.77;;;;;;;;;;5072146;28;20453;-69
2021/07/15 14:30:12;;;;;;;4.55;1.20;;;;;;;;;;5072402;28;20033;-69
2021/07/15 14:32:38;;;;;;;4.85;1.08;;;;;;;;;;5054331;28;20139;-69
2021/07/15 14:35:05;;;;;;;3.60;1.15;;;;;;;;;;5071729;28;20051;-69
2021/07/15 14:37:31;;;;;;;3.78;1.08;;;;;;;;;;5072305;28;20020;-69
2021/07/15 14:39:58;;;;;;;7.90;1.23;;;;;;;;;;5054522;28;20051;-69
2021/07/15 14:42:25;;;;;;;5.63;1.40;;;;;;;;;;5054716;28;20041;-69
2021/07/15 14:44:51;;;;;;;4.82;1.48;;;;;;;;;;5054323;28;20071;-69